Milan, Italy
Current Conditions -  °F | °C
As of 1:50 AM on Monday 24 Nov 2014 (Local Time) from LIML Reporting Station
Haze Haze  
Wind Chill: 46°   Ceiling: 4000
Heat Index: 46°   Visibility: 3mi
Dew Point: 46°   Wind: 0mph
Humidity: 100%   Direction: NA
Pressure: 30.3"   Gusts: NA
Location:  45.46°N, 9.19°E
Report Text: LIML 240050Z 00000KT 5000 BR BKN040 08/08 Q1026 NOSIG
Loading
Personal Weather Stations






























Interactive Weather Map New forecast layout! Learn more

10-Day Weather Forecast

Advertisements
Track Severe Weather on mobile